首页
METAR-TAF:

METAR-TAF

机场 :

维尔纽斯国际机场

维尔纽斯, 立陶宛

纬度: 54-38N, 经度: 025-06E, 海拔: 162米

当前天气观测

该预报发布于7分钟前的02:50 UTC
风速12节,风向西转西南
温度 2°C
湿度 93%
气压 1027 hPa
能見度: 7000
阴天层高于500英尺

METAR: EYVI 210250Z 25012KT 7000 OVC005 02/01 Q1027 R19/1///95 NOSIG

时间: 04:57 (02:57 UTC)

预报

该预报发布于3小时和53分钟前的23:04 UTC
预报有效从21日的 00点(UTC)到 21日的 24点(UTC)
风速16节,风向西,有时为26节阵风
能見度: 5000
阴天层高于500英尺
轻雾
短暂存在
从 21日的 00点(UTC)到 21日的 03点(UTC)
能見度: 1500
阴天层高于300英尺
毛毛雨
短暂存在
从 21日的 03点(UTC)到 21日的 11点(UTC)
能見度: 0800
层高于200英尺
毛毛雨, 雾
成为
从 21日的 11点(UTC)到 21日的 12点(UTC)
能見度: 3000
阴天层高于300英尺
轻雾
短暂存在
从 21日的 12点(UTC)到 21日的 22点(UTC)
能見度: 1500

TAF: EYVI 202304Z 2100/2124 26016G26KT 5000 BR OVC005 TEMPO 2100/2103 1500 DZ OVC003 TEMPO 2103/2111 0800 DZ FG VV002 BECMG 2111/2112 3000 BR OVC003 TEMPO 2112/2122 1500

超过4000个机场的气象观测和天气预报(METAR&TAF报告)。

可查询的气象台以黄色和红色小点在地图上表示。

将鼠标移到小点上方,可查看气象台名称。

然后点击查看天气观测和预报。

如需切换地图:点击带黑十字的绿色按钮放大地图;点击带横线的绿色按钮缩小地图;或者点击绿色箭头查看邻近地区的地图。


METAR-TAF: